createdAt,value
2023-04-06T00:00:51.304Z,8.37
2023-04-06T00:03:54.912Z,9.40
2023-04-06T00:06:58.585Z,9.40
2023-04-06T00:10:04.215Z,9.33
2023-04-06T00:13:08.399Z,8.83
2023-04-06T00:16:11.988Z,9.23
2023-04-06T00:19:16.257Z,9.40
2023-04-06T00:22:19.826Z,9.63
2023-04-06T00:25:24.767Z,10.00
2023-04-06T00:28:29.325Z,10.80
2023-04-06T00:31:32.975Z,11.20
2023-04-06T00:34:36.529Z,10.97
2023-04-06T00:37:40.088Z,10.73
2023-04-06T00:40:46.414Z,9.77
2023-04-06T00:43:50.298Z,10.23
2023-04-06T00:46:54.068Z,10.37
2023-04-06T00:49:57.762Z,11.43
2023-04-06T00:53:01.522Z,10.60
2023-04-06T00:56:07.364Z,10.87
2023-04-06T00:59:11.302Z,11.30
2023-04-06T01:02:15.069Z,10.97
2023-04-06T01:05:19.018Z,11.60
2023-04-06T01:08:22.920Z,10.83
2023-04-06T01:11:28.286Z,11.40
2023-04-06T01:14:32.021Z,11.10
2023-04-06T01:17:36.329Z,11.17
2023-04-06T01:20:40.185Z,12.23
2023-04-06T01:23:47.079Z,13.03
2023-04-06T01:26:50.760Z,12.13
2023-04-06T01:29:54.286Z,12.77
2023-04-06T01:32:57.984Z,11.47
2023-04-06T01:36:02.085Z,12.97
2023-04-06T01:39:07.403Z,12.30
2023-04-06T01:42:11.146Z,11.30
2023-04-06T01:45:14.852Z,11.97
2023-04-06T01:48:18.749Z,12.13
2023-04-06T01:51:22.359Z,12.07
2023-04-06T01:54:27.223Z,12.17
2023-04-06T01:57:30.771Z,12.50
2023-04-06T02:00:34.478Z,11.67
2023-04-06T02:03:37.966Z,12.53
2023-04-06T02:06:41.505Z,12.83
2023-04-06T02:09:46.489Z,12.03
2023-04-06T02:12:50.260Z,11.57
2023-04-06T02:15:53.796Z,12.17
2023-04-06T02:18:57.290Z,12.07
2023-04-06T02:22:01.378Z,12.10
2023-04-06T02:25:07.246Z,11.30
2023-04-06T02:28:10.779Z,11.93
2023-04-06T02:31:16.047Z,11.27
2023-04-06T02:34:19.717Z,11.80
2023-04-06T02:37:24.287Z,11.50
2023-04-06T02:40:29.200Z,11.57
2023-04-06T02:43:33.525Z,10.90
2023-04-06T02:46:37.229Z,10.93
2023-04-06T02:49:40.842Z,10.43
2023-04-06T02:52:44.481Z,11.00
2023-04-06T02:55:49.450Z,10.43
2023-04-06T02:58:53.237Z,10.37
2023-04-06T03:01:56.873Z,10.07
2023-04-06T03:05:00.554Z,10.17
2023-04-06T03:08:04.092Z,10.07
2023-04-06T03:11:09.273Z,10.10
2023-04-06T03:14:14.003Z,10.07
2023-04-06T03:17:17.557Z,9.90
2023-04-06T03:20:21.108Z,9.87
2023-04-06T03:23:24.890Z,10.67
2023-04-06T03:26:29.839Z,10.73
2023-04-06T03:29:33.409Z,10.23
2023-04-06T03:32:37.035Z,10.43
2023-04-06T03:35:40.702Z,9.57
2023-04-06T03:38:44.286Z,10.13
2023-04-06T03:41:49.259Z,10.83
2023-04-06T03:44:52.903Z,10.17
2023-04-06T03:47:56.522Z,10.03
2023-04-06T03:51:00.114Z,10.43
2023-04-06T03:54:03.614Z,10.70
2023-04-06T03:57:08.633Z,11.40
2023-04-06T04:00:14.285Z,12.70
2023-04-06T04:03:17.928Z,11.67
2023-04-06T04:06:21.741Z,12.27
2023-04-06T04:09:26.354Z,12.00
2023-04-06T04:12:32.971Z,10.53
2023-04-06T04:15:36.644Z,11.23
2023-04-06T04:18:40.184Z,11.67
2023-04-06T04:21:48.626Z,11.33
2023-04-06T04:24:52.764Z,11.00
2023-04-06T04:27:57.689Z,10.47
2023-04-06T04:31:01.497Z,10.20
2023-04-06T04:34:05.122Z,10.37
2023-04-06T04:37:08.815Z,10.87
2023-04-06T04:40:13.624Z,10.97
2023-04-06T04:43:18.867Z,9.23
2023-04-06T04:46:22.788Z,9.70
2023-04-06T04:49:26.539Z,10.50
2023-04-06T04:52:30.033Z,10.33
2023-04-06T04:55:33.810Z,10.37
2023-04-06T04:58:39.468Z,9.83
2023-04-06T05:01:54.368Z,10.33
2023-04-06T05:04:59.164Z,11.40
2023-04-06T05:08:02.773Z,12.30
2023-04-06T05:11:06.563Z,13.30
2023-04-06T05:14:12.175Z,11.23
2023-04-06T05:17:16.054Z,11.10
2023-04-06T05:20:20.000Z,11.00
2023-04-06T05:23:23.645Z,9.43
2023-04-06T05:26:27.276Z,10.07
2023-04-06T05:29:32.437Z,10.50
2023-04-06T05:32:37.287Z,10.40
2023-04-06T05:35:41.185Z,10.73
2023-04-06T05:38:44.805Z,9.53
2023-04-06T05:41:48.852Z,10.77
2023-04-06T05:44:53.791Z,10.87
2023-04-06T05:47:58.618Z,9.93
2023-04-06T05:51:03.183Z,10.03
2023-04-06T05:54:06.957Z,9.77
2023-04-06T05:57:11.565Z,10.03
2023-04-06T06:00:17.615Z,9.37
2023-04-06T06:03:23.776Z,9.97
2023-04-06T06:06:28.045Z,9.73
2023-04-06T06:09:31.680Z,9.30
2023-04-06T06:12:35.346Z,8.40
2023-04-06T06:15:40.302Z,9.17
2023-04-06T06:18:43.963Z,8.57
2023-04-06T06:21:47.500Z,9.17
2023-04-06T06:24:51.557Z,8.10
2023-04-06T06:27:55.081Z,8.10
2023-04-06T06:31:00.218Z,8.53
2023-04-06T06:34:03.991Z,8.40
2023-04-06T06:37:08.938Z,8.10
2023-04-06T06:40:14.754Z,8.27
2023-04-06T06:43:18.410Z,8.10
2023-04-06T06:46:23.510Z,8.77
2023-04-06T06:49:27.137Z,8.10
2023-04-06T06:52:30.673Z,7.87
2023-04-06T06:55:34.322Z,8.80
2023-04-06T06:58:38.113Z,7.90
2023-04-06T07:01:43.608Z,7.80
2023-04-06T07:04:50.511Z,8.90
2023-04-06T07:07:54.118Z,7.87
2023-04-06T07:10:58.020Z,7.90
2023-04-06T07:14:01.610Z,7.50
2023-04-06T07:17:06.696Z,7.07
2023-04-06T07:20:11.876Z,7.20
2023-04-06T07:23:16.091Z,7.70
2023-04-06T07:26:19.771Z,7.30
2023-04-06T07:29:24.024Z,7.10
2023-04-06T07:32:29.099Z,7.33
2023-04-06T07:35:33.197Z,7.53
2023-04-06T07:38:36.761Z,6.97
2023-04-06T07:41:40.821Z,6.97
2023-04-06T07:44:44.429Z,6.30
2023-04-06T07:47:49.807Z,7.33
2023-04-06T07:50:53.493Z,6.13
2023-04-06T07:53:57.109Z,6.50
2023-04-06T07:57:00.643Z,5.73
2023-04-06T08:00:05.254Z,6.33
2023-04-06T08:03:10.282Z,7.37
2023-04-06T08:06:13.936Z,7.00
2023-04-06T08:09:17.485Z,5.93
2023-04-06T08:12:21.109Z,6.07
2023-04-06T08:15:24.779Z,6.00
2023-04-06T08:18:30.981Z,6.23
2023-04-06T08:21:35.389Z,6.00
2023-04-06T08:24:39.084Z,5.63
2023-04-06T08:27:42.695Z,5.73
2023-04-06T08:30:46.348Z,6.17
2023-04-06T08:33:51.308Z,5.87
2023-04-06T08:36:54.941Z,6.07
2023-04-06T08:39:59.749Z,5.87
2023-04-06T08:43:12.450Z,5.03
2023-04-06T08:46:17.286Z,5.50
2023-04-06T08:49:23.251Z,5.47
2023-04-06T08:52:29.862Z,5.60
2023-04-06T08:55:33.838Z,4.87
2023-04-06T08:58:41.279Z,6.17
2023-04-06T09:01:47.804Z,6.07
2023-04-06T09:04:56.427Z,6.00
2023-04-06T09:08:00.183Z,6.07
2023-04-06T09:11:04.250Z,6.07
2023-04-06T09:14:08.175Z,5.87
2023-04-06T09:17:23.646Z,6.00
2023-04-06T09:20:30.475Z,5.83
2023-04-06T09:23:34.371Z,6.23
2023-04-06T09:26:49.055Z,6.13
2023-04-06T09:29:52.693Z,5.87
2023-04-06T09:33:00.424Z,5.83
2023-04-06T09:36:05.908Z,6.13
2023-04-06T09:39:09.457Z,6.10
2023-04-06T09:42:26.530Z,5.77
2023-04-06T09:45:32.877Z,5.73
2023-04-06T09:48:38.159Z,7.17
2023-04-06T09:51:48.504Z,6.07
2023-04-06T09:54:55.723Z,6.53
2023-04-06T09:58:07.193Z,6.00
2023-04-06T10:01:17.410Z,6.53
2023-04-06T10:04:42.717Z,6.60
2023-04-06T10:08:00.125Z,6.93
2023-04-06T10:11:06.750Z,6.40
2023-04-06T10:14:12.878Z,6.03
2023-04-06T10:17:16.472Z,7.17
2023-04-06T10:20:30.100Z,6.87
2023-04-06T10:23:42.225Z,7.40
2023-04-06T10:26:46.070Z,7.17
2023-04-06T10:29:52.302Z,7.03
2023-04-06T10:32:55.974Z,6.70
2023-04-06T10:35:59.891Z,7.50
2023-04-06T10:39:07.566Z,7.73
2023-04-06T10:42:11.716Z,7.60
2023-04-06T10:45:23.937Z,8.37
2023-04-06T10:48:38.556Z,8.23
2023-04-06T10:51:42.388Z,7.93
2023-04-06T10:54:50.445Z,8.87
2023-04-06T10:57:54.632Z,8.53
2023-04-06T11:00:58.473Z,7.93
2023-04-06T11:04:02.249Z,8.60
2023-04-06T11:07:06.363Z,7.73
2023-04-06T11:10:17.549Z,9.00
2023-04-06T11:13:22.975Z,7.97
2023-04-06T11:16:29.195Z,8.77
2023-04-06T11:19:34.598Z,7.87
2023-04-06T11:22:38.160Z,8.83
2023-04-06T11:25:53.932Z,8.17
2023-04-06T11:28:57.603Z,8.10
2023-04-06T11:32:04.008Z,8.43
2023-04-06T11:35:08.985Z,7.87
2023-04-06T11:38:12.646Z,9.00
2023-04-06T11:41:17.697Z,8.23
2023-04-06T11:44:34.235Z,8.37
2023-04-06T11:47:39.675Z,7.93
2023-04-06T11:50:43.353Z,8.03
2023-04-06T11:53:47.945Z,8.30
2023-04-06T11:56:52.965Z,8.60
2023-04-06T11:59:57.698Z,8.20
2023-04-06T12:03:01.436Z,8.30
2023-04-06T12:06:05.103Z,8.57
2023-04-06T12:09:08.731Z,8.50
2023-04-06T12:12:13.697Z,7.83
2023-04-06T12:15:17.424Z,8.37
2023-04-06T12:18:21.142Z,8.13
2023-04-06T12:21:24.870Z,8.00
2023-04-06T12:24:29.337Z,7.60
2023-04-06T12:27:34.408Z,8.37
2023-04-06T12:30:38.212Z,7.90
2023-04-06T12:33:41.729Z,7.50
2023-04-06T12:36:45.453Z,7.47
2023-04-06T12:39:49.096Z,7.70
2023-04-06T12:42:54.099Z,8.23
2023-04-06T12:45:57.614Z,7.87
2023-04-06T12:49:02.144Z,8.73
2023-04-06T12:52:06.107Z,7.80
2023-04-06T12:55:11.091Z,7.90
2023-04-06T12:58:16.298Z,8.27
2023-04-06T13:01:21.145Z,8.67
2023-04-06T13:04:25.688Z,8.07
2023-04-06T13:07:29.752Z,7.43
2023-04-06T13:10:33.270Z,8.67
2023-04-06T13:13:39.340Z,8.03
2023-04-06T13:16:43.797Z,7.57
2023-04-06T13:19:47.598Z,7.57
2023-04-06T13:22:51.152Z,7.43
2023-04-06T13:26:01.863Z,7.47
2023-04-06T13:29:06.826Z,7.70
2023-04-06T13:32:11.368Z,8.10
2023-04-06T13:35:15.602Z,8.20
2023-04-06T13:38:19.437Z,8.53
2023-04-06T13:41:24.298Z,8.57
2023-04-06T13:44:30.990Z,8.27
2023-04-06T13:47:34.715Z,8.50
2023-04-06T13:50:38.342Z,8.07
2023-04-06T13:53:42.716Z,8.90
2023-04-06T13:56:47.332Z,8.53
2023-04-06T13:59:52.198Z,8.57
2023-04-06T14:02:57.080Z,7.73
2023-04-06T14:06:05.052Z,8.43
2023-04-06T14:09:19.604Z,8.10
2023-04-06T14:12:23.248Z,7.77
2023-04-06T14:15:28.986Z,7.67
2023-04-06T14:18:32.469Z,8.33
2023-04-06T14:21:36.116Z,7.93
2023-04-06T14:24:39.707Z,8.70
2023-04-06T14:27:44.171Z,8.33
2023-04-06T14:30:49.020Z,8.60
2023-04-06T14:33:53.773Z,10.33
2023-04-06T14:36:57.842Z,10.47
2023-04-06T14:40:01.382Z,8.80
2023-04-06T14:43:05.116Z,9.33
2023-04-06T14:46:10.133Z,8.77
2023-04-06T14:49:16.231Z,9.33
2023-04-06T14:52:19.902Z,8.67
2023-04-06T14:55:23.685Z,8.30
2023-04-06T14:58:28.331Z,7.90
2023-04-06T15:01:37.134Z,7.57
2023-04-06T15:04:42.049Z,7.83
2023-04-06T15:07:50.494Z,7.87
2023-04-06T15:10:55.667Z,9.37
2023-04-06T15:13:59.327Z,9.17
2023-04-06T15:17:04.426Z,9.00
2023-04-06T15:20:09.473Z,8.87
2023-04-06T15:23:13.424Z,9.03
2023-04-06T15:26:17.001Z,8.63
2023-04-06T15:29:21.366Z,8.10
2023-04-06T15:32:27.260Z,8.77
2023-04-06T15:35:31.723Z,8.07
2023-04-06T15:38:35.896Z,8.07
2023-04-06T15:41:39.610Z,8.20
2023-04-06T15:44:43.675Z,7.67
2023-04-06T15:47:48.830Z,8.63
2023-04-06T15:50:53.290Z,8.53
2023-04-06T15:53:57.199Z,8.30
2023-04-06T15:57:01.540Z,8.07
2023-04-06T16:00:07.184Z,8.50
2023-04-06T16:03:12.306Z,8.90
2023-04-06T16:06:16.482Z,8.10
2023-04-06T16:09:20.312Z,8.40
2023-04-06T16:12:25.168Z,8.03
2023-04-06T16:15:29.496Z,10.77
2023-04-06T16:18:36.485Z,8.00
2023-04-06T16:21:40.325Z,8.10
2023-04-06T16:24:43.986Z,8.50
2023-04-06T16:27:48.249Z,8.77
2023-04-06T16:30:51.969Z,8.37
2023-04-06T16:33:58.047Z,7.70
2023-04-06T16:37:02.646Z,8.13
2023-04-06T16:40:08.477Z,7.77
2023-04-06T16:43:12.193Z,7.87
2023-04-06T16:46:15.955Z,8.47
2023-04-06T16:49:21.341Z,7.83
2023-04-06T16:52:24.973Z,8.40
2023-04-06T16:55:28.601Z,8.80
2023-04-06T16:58:32.852Z,9.37
2023-04-06T17:01:36.605Z,7.87
2023-04-06T17:04:41.814Z,8.40
2023-04-06T17:07:45.441Z,9.67
2023-04-06T17:10:59.287Z,8.03
2023-04-06T17:14:06.701Z,16.27
2023-04-06T17:17:10.322Z,8.53
2023-04-06T17:20:15.494Z,8.50
2023-04-06T17:23:21.152Z,8.50
2023-04-06T17:26:24.899Z,15.63
2023-04-06T17:29:28.423Z,13.83
2023-04-06T17:32:32.713Z,9.63
2023-04-06T17:35:38.121Z,9.50
2023-04-06T17:38:44.123Z,9.00
2023-04-06T17:41:47.858Z,9.30
2023-04-06T17:44:53.323Z,11.83
2023-04-06T17:47:57.126Z,10.10
2023-04-06T17:51:02.096Z,10.00
2023-04-06T17:54:05.950Z,10.87
2023-04-06T17:57:09.496Z,8.33
2023-04-06T18:00:15.788Z,10.07
2023-04-06T18:03:19.295Z,9.27
2023-04-06T18:06:25.761Z,8.40
2023-04-06T18:09:32.296Z,8.93
2023-04-06T18:12:36.160Z,8.87
2023-04-06T18:15:57.301Z,8.80
2023-04-06T18:19:04.494Z,9.67
2023-04-06T18:22:10.630Z,7.87
2023-04-06T18:25:14.289Z,8.83
2023-04-06T18:28:17.894Z,9.50
2023-04-06T18:31:22.017Z,9.00
2023-04-06T18:34:25.728Z,22.53
2023-04-06T18:37:30.850Z,27.23
2023-04-06T18:40:36.940Z,12.53
2023-04-06T18:43:40.520Z,26.00
2023-04-06T18:46:46.073Z,16.23
2023-04-06T18:49:50.101Z,37.77
2023-04-06T18:52:55.172Z,26.73
2023-04-06T18:55:59.084Z,46.57
2023-04-06T18:59:02.629Z,27.50
2023-04-06T19:02:06.479Z,14.67
2023-04-06T19:05:12.149Z,15.17
2023-04-06T19:08:17.268Z,16.47
2023-04-06T19:11:23.278Z,12.27
2023-04-06T19:14:26.942Z,12.73
2023-04-06T19:17:30.618Z,11.43
2023-04-06T19:20:35.691Z,11.80
2023-04-06T19:23:40.648Z,14.47
2023-04-06T19:26:45.055Z,12.50
2023-04-06T19:29:48.606Z,15.57
2023-04-06T19:32:52.949Z,15.37
2023-04-06T19:35:56.531Z,20.17
2023-04-06T19:39:01.811Z,13.20
2023-04-06T19:42:05.872Z,12.17
2023-04-06T19:45:10.391Z,12.07
2023-04-06T19:48:13.944Z,10.77
2023-04-06T19:51:17.613Z,10.03
2023-04-06T19:54:22.788Z,10.60
2023-04-06T19:57:27.542Z,9.13
2023-04-06T20:00:31.456Z,8.97
2023-04-06T20:03:36.530Z,8.47
2023-04-06T20:06:40.215Z,8.03
2023-04-06T20:09:45.141Z,7.27
2023-04-06T20:12:48.812Z,7.47
2023-04-06T20:15:52.356Z,8.23
2023-04-06T20:18:55.968Z,8.43
2023-04-06T20:22:03.211Z,8.00
2023-04-06T20:25:10.621Z,8.83
2023-04-06T20:28:14.155Z,7.67
2023-04-06T20:31:17.686Z,7.87
2023-04-06T20:34:21.934Z,9.53
2023-04-06T20:37:25.787Z,8.93
2023-04-06T20:40:31.157Z,6.87
2023-04-06T20:43:35.582Z,7.00
2023-04-06T20:46:39.243Z,7.57
2023-04-06T20:49:42.757Z,6.97
2023-04-06T20:52:46.969Z,7.83
2023-04-06T20:55:51.843Z,8.00
2023-04-06T20:58:55.575Z,7.60
2023-04-06T21:01:59.294Z,10.73
2023-04-06T21:05:03.330Z,7.33
2023-04-06T21:08:07.023Z,7.03
2023-04-06T21:11:12.398Z,8.03
2023-04-06T21:14:16.900Z,7.53
2023-04-06T21:17:21.510Z,9.00
2023-04-06T21:20:25.100Z,7.77
2023-04-06T21:23:28.903Z,8.80
2023-04-06T21:26:33.800Z,7.63
2023-04-06T21:29:37.420Z,7.23
2023-04-06T21:32:41.007Z,7.67
2023-04-06T21:35:44.644Z,7.40
2023-04-06T21:38:48.202Z,9.70
2023-04-06T21:41:53.630Z,7.40
2023-04-06T21:44:58.300Z,7.20
2023-04-06T21:48:02.697Z,7.67
2023-04-06T21:51:06.249Z,7.67
2023-04-06T21:54:09.996Z,8.20
2023-04-06T21:57:14.857Z,7.97
2023-04-06T22:00:20.481Z,7.37
2023-04-06T22:03:24.120Z,7.90
2023-04-06T22:06:29.956Z,7.90
2023-04-06T22:09:33.658Z,8.43
2023-04-06T22:12:38.647Z,8.90
2023-04-06T22:15:42.160Z,8.33
2023-04-06T22:18:45.771Z,8.27
2023-04-06T22:21:50.040Z,8.20
2023-04-06T22:24:54.029Z,8.30
2023-04-06T22:27:58.944Z,9.27
2023-04-06T22:31:02.495Z,8.37
2023-04-06T22:34:06.170Z,8.63
2023-04-06T22:37:09.709Z,7.93
2023-04-06T22:40:14.682Z,9.00
2023-04-06T22:43:19.612Z,8.47
2023-04-06T22:46:23.640Z,8.70
2023-04-06T22:49:27.163Z,8.50
2023-04-06T22:52:30.796Z,8.43
2023-04-06T22:55:34.639Z,8.93
2023-04-06T22:58:39.503Z,9.47
2023-04-06T23:01:43.321Z,9.03
2023-04-06T23:04:47.036Z,9.23
2023-04-06T23:07:51.294Z,9.43
2023-04-06T23:10:54.779Z,8.73
2023-04-06T23:13:59.779Z,9.50
2023-04-06T23:17:03.469Z,8.87
2023-04-06T23:20:08.769Z,9.60
2023-04-06T23:23:12.269Z,9.47
2023-04-06T23:26:15.842Z,9.70
2023-04-06T23:29:20.743Z,10.40
2023-04-06T23:32:24.478Z,9.90
2023-04-06T23:35:28.069Z,9.43
2023-04-06T23:38:31.593Z,10.77
2023-04-06T23:41:35.659Z,10.77
2023-04-06T23:44:40.594Z,10.97
2023-04-06T23:47:45.961Z,9.90
2023-04-06T23:50:49.571Z,10.43
2023-04-06T23:53:53.108Z,10.47
2023-04-06T23:56:58.477Z,10.23
